Details From LOWI - Innsbruck Kranebitten
To LPMA - Madeira
Flight Number -
Tags Generated
Created
Modified
Stats Distance 1,549 nm / 2,868 km
Max Altitude 0 ft / 0 m
Waypoints 7
Social Downloads 0
Likes 0
Share VATSIM

Download

Looking for another format? Having issues loading an existing format? Contact us
Advertisement - Login to hide

Notes

Generated

Route

LOWI MOBLO GAI GARVU RAKOD MAD LPMA

ID Type Via Altitude Latitude Longitude Leg Dist Tot Dist Heading (true) Name
O LOWI APT - 0 ft / 0 m 47.25883˚ 11.33091˚ - 0 nm - -
MOBLO FIX - 0 ft / 0 m 45.80972˚ 6.72278˚ 209 nm 209 nm 247° / 244° -
GAI VOR - 0 ft / 0 m 43.95406˚ 1.82417˚ 236 nm 445 nm 244° / 240° GAILLAC-Castelneau de Montmira
GARVU FIX - 0 ft / 0 m 42.17104˚ -2.07781˚ 201 nm 647 nm 239° / 237° -
RAKOD FIX - 0 ft / 0 m 39.78082˚ -6.62851˚ 251 nm 898 nm 237° / 234° -
MAD NDB - 0 ft / 0 m 32.74813˚ -16.70651˚ 644 nm 1543 nm 232° / 226° MADEIRA NDB
O LPMA APT - 0 ft / 0 m 32.68900˚ -16.78409˚ 5 nm 1548 nm 228° / 228° -

Altitude Profile

Advertisement - Login to hide

Weather


0- 5 10 15 20 25 30 35+ Temperature / ° C

Clouds and Precipitation
Forecast for 2017-12-13 18:00 UTC. Updated 2 hours ago

Ground ~20,000 ft ~40,000 ft Winds

LOWI

Details ICAO LOWI (INN)
Name Innsbruck Kranebitten
Region Austria
Timezone Europe/Vienna (UTC+1.0)
Stats Elevation 1,906 ft / 581 m (AMSL)
Location 47.260226° 11.343967°
Runways 1
Magnetic Variation 3.019° E

METAR

LOWI 131850Z 28009KT 9999 SCT120 BKN300 M02/M04 Q1010 R08/19//95 NOSIG

Decode

TAF

TAF LOWI 131715Z 1318/1418 27010KT 9999 FEW030 BKN100 TX04/1412Z TNM02/1319Z TEMPO 1324/1418 27015G25KT -SHSN FEW015 BKN060

Decode

Departure Runways

ID Width Length Bearing (true) Bearing (mag) Surface Threshold Offset Overrun Length
08 148 ft / 45 m 6,545 ft / 1,995 m 81.02° 78.00° Asphalt 338 ft / 103 m 0 ft / 0 m
26 148 ft / 45 m 6,545 ft / 1,995 m 261.04° 258.02° Asphalt 0 ft / 0 m 0 ft / 0 m

LPMA

Details ICAO LPMA (FNC)
Name Madeira
Region Portugal
Timezone Atlantic/Madeira (UTC+0.0)
Stats Elevation 192 ft / 59 m (AMSL)
Location 32.697704° -16.774449°
Runways 1
Magnetic Variation 4.982° W

METAR

LPMA 131900Z 01010KT 9999 FEW015 SCT030 18/13 Q1029

Decode

TAF

TAF LPMA 131700Z 1318/1418 02013KT 9999 SCT016 SCT030 PROB40 TEMPO 1318/1418 02017G27KT 6000 -RA BKN014

Decode

Destination Runways

ID Width Length Bearing (true) Bearing (mag) Surface Threshold Offset Overrun Length
05 141 ft / 43 m 8,683 ft / 2,647 m 42.98° 47.96° Asphalt 472 ft / 144 m 0 ft / 0 m
23 141 ft / 43 m 8,683 ft / 2,647 m 222.99° 227.97° Asphalt 466 ft / 142 m 0 ft / 0 m

Popular Alternatives